createdAt,value
2023-01-29T00:00:09.205Z,97542.34
2023-01-29T00:02:38.965Z,97542.44
2023-01-29T00:05:25.476Z,97539.91
2023-01-29T00:07:52.954Z,97550.84
2023-01-29T00:10:19.589Z,97548.66
2023-01-29T00:12:46.230Z,97543.41
2023-01-29T00:15:12.892Z,97545.94
2023-01-29T00:17:39.548Z,97541.16
2023-01-29T00:20:06.599Z,97545.56
2023-01-29T00:22:33.281Z,97541.44
2023-01-29T00:24:59.946Z,97541.66
2023-01-29T00:27:26.596Z,97541.06
2023-01-29T00:29:53.236Z,97542.09
2023-01-29T00:32:20.094Z,97534.75
2023-01-29T00:34:46.815Z,97533.75
2023-01-29T00:37:13.473Z,97532.53
2023-01-29T00:39:47.960Z,97540.13
2023-01-29T00:42:14.925Z,97534.88
2023-01-29T00:44:41.602Z,97537.78
2023-01-29T00:47:08.259Z,97541.38
2023-01-29T00:49:34.918Z,97537.63
2023-01-29T00:52:01.569Z,97543.63
2023-01-29T00:54:28.194Z,97542.78
2023-01-29T00:56:54.819Z,97540.97
2023-01-29T00:59:21.454Z,97540.41
2023-01-29T01:01:48.176Z,97536.78
2023-01-29T01:04:14.882Z,97538.81
2023-01-29T01:06:43.021Z,97537.31
2023-01-29T01:09:09.917Z,97540.50
2023-01-29T01:11:36.583Z,97543.53
2023-01-29T01:14:03.228Z,97549.53
2023-01-29T01:16:29.900Z,97559.22
2023-01-29T01:18:56.665Z,97557.53
2023-01-29T01:21:23.297Z,97550.28
2023-01-29T01:23:49.937Z,97565.13
2023-01-29T01:26:16.635Z,97562.69
2023-01-29T01:28:43.270Z,97564.47
2023-01-29T01:31:10.871Z,97562.69
2023-01-29T01:33:37.610Z,97557.31
2023-01-29T01:36:04.605Z,97570.63
2023-01-29T01:38:31.264Z,97573.66
2023-01-29T01:40:57.909Z,97570.56
2023-01-29T01:43:24.590Z,97575.22
2023-01-29T01:45:51.262Z,97568.47
2023-01-29T01:48:25.027Z,97565.34
2023-01-29T01:50:59.519Z,97574.81
2023-01-29T01:53:29.123Z,97573.22
2023-01-29T01:55:59.624Z,97574.63
2023-01-29T01:58:30.941Z,97581.19
2023-01-29T02:00:57.683Z,97581.53
2023-01-29T02:03:24.471Z,97581.72
2023-01-29T02:05:51.125Z,97583.31
2023-01-29T02:08:20.488Z,97587.31
2023-01-29T02:10:47.516Z,97588.63
2023-01-29T02:13:14.536Z,97591.63
2023-01-29T02:15:41.167Z,97594.03
2023-01-29T02:18:08.297Z,97592.50
2023-01-29T02:20:34.940Z,97601.22
2023-01-29T02:23:21.121Z,97618.84
2023-01-29T02:26:00.093Z,97616.66
2023-01-29T02:28:29.665Z,97625.38
2023-01-29T02:31:09.964Z,97631.47
2023-01-29T02:34:01.626Z,97645.22
2023-01-29T02:36:37.069Z,97648.69
2023-01-29T02:39:13.249Z,97642.41
2023-01-29T02:42:01.063Z,97640.97
2023-01-29T02:44:37.211Z,97644.88
2023-01-29T02:47:05.839Z,97648.34
2023-01-29T02:49:59.885Z,97653.28
2023-01-29T02:52:29.644Z,97652.50
2023-01-29T02:55:06.811Z,97651.41
2023-01-29T02:57:35.936Z,97647.78
2023-01-29T03:00:09.938Z,97649.56
2023-01-29T03:02:56.843Z,97645.81
2023-01-29T03:05:37.064Z,97642.16
2023-01-29T03:08:07.181Z,97642.69
2023-01-29T03:10:40.421Z,97651.63
2023-01-29T03:13:12.265Z,97649.19
2023-01-29T03:15:43.418Z,97647.94
2023-01-29T03:18:12.458Z,97659.72
2023-01-29T03:20:47.857Z,97654.47
2023-01-29T03:23:19.753Z,97651.25
2023-01-29T03:25:46.418Z,97660.06
2023-01-29T03:28:15.178Z,97659.88
2023-01-29T03:30:50.014Z,97652.00
2023-01-29T03:33:16.667Z,97656.34
2023-01-29T03:36:10.664Z,97655.06
2023-01-29T03:38:37.317Z,97646.66
2023-01-29T03:41:03.878Z,97643.44
2023-01-29T03:43:36.339Z,97647.09
2023-01-29T03:46:11.678Z,97643.88
2023-01-29T03:48:51.587Z,97656.06
2023-01-29T03:51:21.131Z,97647.94
2023-01-29T03:53:49.131Z,97655.81
2023-01-29T03:56:26.421Z,97652.44
2023-01-29T03:58:59.159Z,97650.06
2023-01-29T04:01:29.188Z,97662.00
2023-01-29T04:03:58.897Z,97659.19
2023-01-29T04:06:27.411Z,97654.13
2023-01-29T04:08:59.265Z,97648.63
2023-01-29T04:11:25.913Z,97656.75
2023-01-29T04:13:52.560Z,97655.66
2023-01-29T04:16:33.401Z,97665.81
2023-01-29T04:19:00.139Z,97656.25
2023-01-29T04:21:26.971Z,97653.03
2023-01-29T04:23:53.666Z,97648.19
2023-01-29T04:26:34.916Z,97649.03
2023-01-29T04:29:52.534Z,97655.41
2023-01-29T04:32:26.121Z,97650.91
2023-01-29T04:35:21.704Z,97654.47
2023-01-29T04:38:03.334Z,97656.25
2023-01-29T04:40:35.427Z,97654.81
2023-01-29T04:43:09.706Z,97659.97
2023-01-29T04:45:43.001Z,97662.59
2023-01-29T04:48:26.257Z,97661.84
2023-01-29T04:51:15.709Z,97653.19
2023-01-29T04:53:55.815Z,97653.03
2023-01-29T04:56:31.395Z,97655.38
2023-01-29T04:59:02.211Z,97656.91
2023-01-29T05:01:28.899Z,97660.16
2023-01-29T05:03:55.569Z,97657.53
2023-01-29T05:06:22.213Z,97648.72
2023-01-29T05:08:48.847Z,97659.38
2023-01-29T05:11:15.621Z,97657.00
2023-01-29T05:13:42.259Z,97660.81
2023-01-29T05:16:22.395Z,97657.84
2023-01-29T05:18:49.073Z,97657.69
2023-01-29T05:21:15.743Z,97662.22
2023-01-29T05:23:42.379Z,97658.31
2023-01-29T05:26:09.035Z,97667.88
2023-01-29T05:28:35.740Z,97678.78
2023-01-29T05:31:02.452Z,97675.63
2023-01-29T05:33:30.186Z,97679.94
2023-01-29T05:35:57.221Z,97683.41
2023-01-29T05:38:23.870Z,97688.91
2023-01-29T05:40:50.557Z,97701.94
2023-01-29T05:43:24.363Z,97693.47
2023-01-29T05:45:58.278Z,97707.19
2023-01-29T05:48:25.474Z,97707.19
2023-01-29T05:50:52.154Z,97712.19
2023-01-29T05:53:18.821Z,97719.13
2023-01-29T05:55:46.082Z,97727.88
2023-01-29T05:58:12.812Z,97725.31
2023-01-29T06:00:39.477Z,97728.66
2023-01-29T06:03:06.223Z,97735.53
2023-01-29T06:05:32.897Z,97736.03
2023-01-29T06:07:59.559Z,97743.09
2023-01-29T06:10:26.217Z,97742.97
2023-01-29T06:12:52.916Z,97747.13
2023-01-29T06:15:19.553Z,97745.41
2023-01-29T06:17:46.196Z,97746.00
2023-01-29T06:20:12.870Z,97759.94
2023-01-29T06:22:39.542Z,97760.16
2023-01-29T06:25:06.849Z,97754.59
2023-01-29T06:27:33.510Z,97750.28
2023-01-29T06:30:00.177Z,97754.75
2023-01-29T06:32:27.601Z,97752.06
2023-01-29T06:34:54.321Z,97759.84
2023-01-29T06:37:21.267Z,97758.81
2023-01-29T06:39:47.898Z,97761.63
2023-01-29T06:42:14.528Z,97770.16
2023-01-29T06:44:41.189Z,97778.22
2023-01-29T06:47:07.818Z,97790.06
2023-01-29T06:49:34.458Z,97798.72
2023-01-29T06:52:01.233Z,97799.81
2023-01-29T06:54:27.867Z,97804.28
2023-01-29T06:56:54.549Z,97816.25
2023-01-29T06:59:21.282Z,97812.06
2023-01-29T07:01:48.068Z,97819.94
2023-01-29T07:04:14.771Z,97817.22
2023-01-29T07:06:41.569Z,97811.41
2023-01-29T07:09:08.231Z,97802.84
2023-01-29T07:11:35.077Z,97802.47
2023-01-29T07:14:01.770Z,97805.63
2023-01-29T07:16:28.474Z,97809.25
2023-01-29T07:18:55.332Z,97803.31
2023-01-29T07:21:22.004Z,97803.06
2023-01-29T07:23:48.686Z,97821.88
2023-01-29T07:26:15.356Z,97826.97
2023-01-29T07:28:41.981Z,97820.88
2023-01-29T07:31:08.661Z,97828.44
2023-01-29T07:33:35.366Z,97831.00
2023-01-29T07:36:02.020Z,97834.06
2023-01-29T07:38:28.691Z,97829.88
2023-01-29T07:40:55.362Z,97838.28
2023-01-29T07:43:21.989Z,97828.00
2023-01-29T07:45:48.656Z,97828.19
2023-01-29T07:48:15.371Z,97824.03
2023-01-29T07:50:42.077Z,97823.28
2023-01-29T07:53:12.425Z,97812.88
2023-01-29T07:55:39.081Z,97806.88
2023-01-29T07:58:05.772Z,97804.00
2023-01-29T08:00:32.515Z,97797.63
2023-01-29T08:03:06.403Z,97795.56
2023-01-29T08:05:33.119Z,97796.44
2023-01-29T08:08:06.551Z,97798.94
2023-01-29T08:10:35.200Z,97798.75
2023-01-29T08:13:01.917Z,97810.72
2023-01-29T08:15:28.646Z,97795.06
2023-01-29T08:20:41.950Z,97788.31
2023-01-29T08:23:15.015Z,97784.59
2023-01-29T08:25:41.729Z,97797.19
2023-01-29T08:28:08.374Z,97790.16
2023-01-29T08:30:35.236Z,97791.81
2023-01-29T08:33:02.848Z,97792.50
2023-01-29T08:35:29.507Z,97786.56
2023-01-29T08:37:57.189Z,97795.56
2023-01-29T08:40:23.832Z,97799.97
2023-01-29T08:42:50.455Z,97797.50
2023-01-29T08:45:17.112Z,97794.50
2023-01-29T08:47:47.788Z,97794.41
2023-01-29T08:50:15.674Z,97804.44
2023-01-29T08:52:43.477Z,97798.13
2023-01-29T08:55:10.366Z,97795.88
2023-01-29T08:57:37.929Z,97804.84
2023-01-29T09:00:08.375Z,97801.88
2023-01-29T09:02:35.095Z,97800.13
2023-01-29T09:05:01.905Z,97800.06
2023-01-29T09:07:29.213Z,97802.28
2023-01-29T09:09:55.914Z,97798.69
2023-01-29T09:12:22.586Z,97807.38
2023-01-29T09:14:49.276Z,97802.75
2023-01-29T09:17:15.953Z,97799.72
2023-01-29T09:19:42.831Z,97794.41
2023-01-29T09:22:11.750Z,97792.03
2023-01-29T09:24:38.625Z,97793.97
2023-01-29T09:27:05.312Z,97793.63
2023-01-29T09:29:33.539Z,97794.53
2023-01-29T09:32:01.435Z,97790.81
2023-01-29T09:34:28.071Z,97798.88
2023-01-29T09:36:54.717Z,97792.50
2023-01-29T09:39:21.386Z,97800.84
2023-01-29T09:42:03.726Z,97797.63
2023-01-29T09:45:07.509Z,97807.22
2023-01-29T09:47:35.382Z,97815.00
2023-01-29T09:50:13.520Z,97814.97
2023-01-29T09:52:50.734Z,97813.28
2023-01-29T09:55:27.128Z,97820.88
2023-01-29T09:57:57.656Z,97825.97
2023-01-29T10:00:33.022Z,97829.00
2023-01-29T10:03:17.713Z,97836.66
2023-01-29T10:06:00.146Z,97834.97
2023-01-29T10:08:41.365Z,97852.38
2023-01-29T10:11:29.714Z,97855.53
2023-01-29T10:14:13.946Z,97864.25
2023-01-29T10:16:59.071Z,97859.28
2023-01-29T10:19:40.890Z,97855.91
2023-01-29T10:22:29.299Z,97866.34
2023-01-29T10:25:06.560Z,97864.34
2023-01-29T10:27:34.608Z,97861.47
2023-01-29T10:30:02.663Z,97863.00
2023-01-29T10:32:29.387Z,97867.66
2023-01-29T10:35:02.588Z,97868.19
2023-01-29T10:37:40.449Z,97864.44
2023-01-29T10:40:22.981Z,97859.94
2023-01-29T10:42:53.140Z,97861.72
2023-01-29T10:45:25.657Z,97863.66
2023-01-29T10:48:05.215Z,97866.41
2023-01-29T10:51:19.345Z,97870.63
2023-01-29T10:53:54.408Z,97864.41
2023-01-29T10:56:51.639Z,97865.41
2023-01-29T10:59:27.098Z,97865.50
2023-01-29T11:01:58.397Z,97867.38
2023-01-29T11:04:26.637Z,97869.50
2023-01-29T11:06:53.382Z,97876.66
2023-01-29T11:09:32.861Z,97869.22
2023-01-29T11:12:02.020Z,97866.41
2023-01-29T11:14:35.170Z,97860.22
2023-01-29T11:17:01.880Z,97862.16
2023-01-29T11:19:41.953Z,97854.78
2023-01-29T11:22:15.921Z,97855.28
2023-01-29T11:24:42.936Z,97847.31
2023-01-29T11:27:17.033Z,97852.63
2023-01-29T11:29:46.941Z,97851.19
2023-01-29T11:32:26.564Z,97850.44
2023-01-29T11:35:06.389Z,97852.28
2023-01-29T11:37:35.241Z,97852.22
2023-01-29T11:40:02.011Z,97855.69
2023-01-29T11:42:31.037Z,97858.84
2023-01-29T11:44:57.730Z,97855.91
2023-01-29T11:47:29.006Z,97851.06
2023-01-29T11:50:00.418Z,97847.94
2023-01-29T11:52:40.686Z,97843.38
2023-01-29T11:55:11.895Z,97834.44
2023-01-29T11:57:40.753Z,97837.38
2023-01-29T12:00:29.967Z,97830.38
2023-01-29T12:03:16.246Z,97824.66
2023-01-29T12:05:53.548Z,97829.94
2023-01-29T12:08:20.207Z,97826.38
2023-01-29T12:10:46.867Z,97825.19
2023-01-29T12:13:18.721Z,97819.53
2023-01-29T12:15:45.534Z,97822.63
2023-01-29T12:18:33.108Z,97806.81
2023-01-29T12:21:04.163Z,97808.03
2023-01-29T12:24:00.568Z,97803.94
2023-01-29T12:26:30.043Z,97809.19
2023-01-29T12:29:18.544Z,97806.19
2023-01-29T12:32:17.524Z,97798.56
2023-01-29T12:34:48.513Z,97784.66
2023-01-29T12:37:21.970Z,97793.00
2023-01-29T12:39:49.257Z,97778.41
2023-01-29T12:42:20.692Z,97784.63
2023-01-29T12:44:48.364Z,97782.38
2023-01-29T12:47:34.164Z,97776.03
2023-01-29T12:50:03.320Z,97775.00
2023-01-29T12:52:56.432Z,97770.38
2023-01-29T12:55:41.893Z,97763.78
2023-01-29T12:58:22.376Z,97766.25
2023-01-29T13:00:51.046Z,97766.50
2023-01-29T13:03:32.653Z,97763.84
2023-01-29T13:06:05.715Z,97763.84
2023-01-29T13:08:35.864Z,97759.72
2023-01-29T13:11:06.580Z,97761.41
2023-01-29T13:13:35.663Z,97754.63
2023-01-29T13:16:03.894Z,97755.09
2023-01-29T13:18:56.169Z,97743.00
2023-01-29T13:21:25.228Z,97755.75
2023-01-29T13:23:53.649Z,97755.00
2023-01-29T13:26:21.079Z,97752.03
2023-01-29T13:28:47.799Z,97741.78
2023-01-29T13:31:33.627Z,97751.31
2023-01-29T13:34:16.369Z,97752.28
2023-01-29T13:36:44.275Z,97762.03
2023-01-29T13:39:24.369Z,97763.50
2023-01-29T13:41:51.197Z,97759.03
2023-01-29T13:44:33.644Z,97761.06
2023-01-29T13:47:03.654Z,97768.94
2023-01-29T13:49:41.024Z,97764.75
2023-01-29T13:52:20.277Z,97768.88
2023-01-29T13:54:54.042Z,97771.03
2023-01-29T13:57:55.949Z,97769.22
2023-01-29T14:00:22.633Z,97770.28
2023-01-29T14:02:54.901Z,97773.91
2023-01-29T14:05:30.687Z,97772.50
2023-01-29T14:07:58.379Z,97775.53
2023-01-29T14:10:25.721Z,97768.06
2023-01-29T14:13:01.360Z,97771.31
2023-01-29T14:15:29.368Z,97761.19
2023-01-29T14:18:02.166Z,97767.25
2023-01-29T14:20:45.696Z,97772.66
2023-01-29T14:23:23.189Z,97770.41
2023-01-29T14:25:49.863Z,97774.34
2023-01-29T14:28:21.256Z,97771.13
2023-01-29T14:30:48.423Z,97768.84
2023-01-29T14:33:26.826Z,97772.66
2023-01-29T14:35:53.529Z,97770.25
2023-01-29T14:38:20.175Z,97771.44
2023-01-29T14:40:46.863Z,97776.72
2023-01-29T14:43:17.313Z,97776.22
2023-01-29T14:45:43.936Z,97775.50
2023-01-29T14:48:10.497Z,97786.81
2023-01-29T14:50:37.027Z,97780.78
2023-01-29T14:53:12.902Z,97784.25
2023-01-29T14:55:43.763Z,97784.00
2023-01-29T14:58:15.132Z,97783.41
2023-01-29T15:00:43.707Z,97793.38
2023-01-29T15:03:32.494Z,97794.31
2023-01-29T15:05:59.176Z,97788.63
2023-01-29T15:08:29.815Z,97788.53
2023-01-29T15:10:57.688Z,97782.25
2023-01-29T15:13:35.959Z,97793.81
2023-01-29T15:16:16.351Z,97789.41
2023-01-29T15:18:43.124Z,97796.28
2023-01-29T15:21:14.246Z,97792.16
2023-01-29T15:23:40.979Z,97796.84
2023-01-29T15:26:11.857Z,97789.63
2023-01-29T15:28:38.780Z,97780.56
2023-01-29T15:31:07.477Z,97779.09
2023-01-29T15:33:34.605Z,97776.34
2023-01-29T15:36:07.301Z,97774.91
2023-01-29T15:38:34.533Z,97780.06
2023-01-29T15:41:02.616Z,97777.53
2023-01-29T15:43:30.792Z,97768.97
2023-01-29T15:45:59.448Z,97767.16
2023-01-29T15:48:32.809Z,97768.84
2023-01-29T15:50:59.782Z,97772.06
2023-01-29T15:53:33.732Z,97765.94
2023-01-29T15:56:00.381Z,97766.66
2023-01-29T15:58:31.189Z,97767.50
2023-01-29T16:00:58.059Z,97767.75
2023-01-29T16:03:26.170Z,97770.81
2023-01-29T16:05:53.320Z,97769.75
2023-01-29T16:08:20.970Z,97773.59
2023-01-29T16:10:48.145Z,97771.66
2023-01-29T16:13:22.270Z,97778.75
2023-01-29T16:15:58.603Z,97783.94
2023-01-29T16:18:29.726Z,97785.63
2023-01-29T16:20:56.502Z,97780.44
2023-01-29T16:23:30.549Z,97780.03
2023-01-29T16:26:02.003Z,97781.13
2023-01-29T16:28:28.733Z,97786.63
2023-01-29T16:30:57.186Z,97780.09
2023-01-29T16:33:23.882Z,97787.84
2023-01-29T16:35:51.382Z,97788.59
2023-01-29T16:38:29.079Z,97790.16
2023-01-29T16:41:07.420Z,97787.00
2023-01-29T16:43:49.337Z,97801.19
2023-01-29T16:46:20.436Z,97796.63
2023-01-29T16:48:47.190Z,97799.38
2023-01-29T16:51:17.651Z,97800.22
2023-01-29T16:53:59.487Z,97799.50
2023-01-29T16:56:27.739Z,97800.44
2023-01-29T16:58:54.432Z,97804.66
2023-01-29T17:01:22.716Z,97801.06
2023-01-29T17:04:00.659Z,97808.03
2023-01-29T17:06:27.499Z,97799.25
2023-01-29T17:08:54.981Z,97810.81
2023-01-29T17:11:46.241Z,97801.28
2023-01-29T17:14:12.876Z,97803.72
2023-01-29T17:16:56.458Z,97804.66
2023-01-29T17:19:23.139Z,97809.75
2023-01-29T17:21:49.807Z,97804.84
2023-01-29T17:24:16.490Z,97806.72
2023-01-29T17:26:43.228Z,97800.72
2023-01-29T17:29:13.490Z,97810.69
2023-01-29T17:31:40.250Z,97813.31
2023-01-29T17:34:11.043Z,97810.50
2023-01-29T17:36:37.710Z,97818.84
2023-01-29T17:39:18.495Z,97812.94
2023-01-29T17:41:47.631Z,97811.25
2023-01-29T17:44:14.288Z,97814.75
2023-01-29T17:46:40.924Z,97815.59
2023-01-29T17:49:27.289Z,97817.28
2023-01-29T17:51:54.403Z,97821.72
2023-01-29T17:54:21.079Z,97826.78
2023-01-29T17:56:47.934Z,97827.75
2023-01-29T17:59:19.073Z,97832.53
2023-01-29T18:01:46.420Z,97831.88
2023-01-29T18:04:13.106Z,97840.53
2023-01-29T18:06:40.227Z,97841.72
2023-01-29T18:09:07.005Z,97845.31
2023-01-29T18:11:33.657Z,97839.94
2023-01-29T18:14:01.295Z,97838.25
2023-01-29T18:16:40.959Z,97836.44
2023-01-29T18:19:16.716Z,97834.88
2023-01-29T18:21:43.379Z,97827.78
2023-01-29T18:24:10.059Z,97830.41
2023-01-29T18:26:36.728Z,97830.53
2023-01-29T18:29:04.161Z,97831.03
2023-01-29T18:31:31.036Z,97827.56
2023-01-29T18:33:57.804Z,97832.09
2023-01-29T18:36:24.444Z,97821.53
2023-01-29T18:38:51.071Z,97827.66
2023-01-29T18:41:17.715Z,97827.13
2023-01-29T18:43:44.410Z,97835.94
2023-01-29T18:46:11.137Z,97827.22
2023-01-29T18:48:37.826Z,97828.84
2023-01-29T18:51:04.630Z,97828.63
2023-01-29T18:53:31.287Z,97831.72
2023-01-29T18:55:58.718Z,97828.00
2023-01-29T18:58:33.587Z,97817.00
2023-01-29T19:01:03.661Z,97822.06
2023-01-29T19:03:30.328Z,97826.50
2023-01-29T19:06:01.039Z,97829.34
2023-01-29T19:08:27.898Z,97816.88
2023-01-29T19:10:54.536Z,97818.66
2023-01-29T19:13:21.203Z,97827.22
2023-01-29T19:15:49.284Z,97823.53
2023-01-29T19:18:15.930Z,97824.34
2023-01-29T19:20:42.579Z,97821.72
2023-01-29T19:23:09.319Z,97818.94
2023-01-29T19:25:39.414Z,97810.19
2023-01-29T19:28:06.254Z,97816.88
2023-01-29T19:30:32.984Z,97812.38
2023-01-29T19:32:59.723Z,97818.22
2023-01-29T19:35:26.382Z,97822.97
2023-01-29T19:37:53.049Z,97822.84
2023-01-29T19:40:19.859Z,97829.72
2023-01-29T19:42:46.889Z,97839.22
2023-01-29T19:45:13.719Z,97831.75
2023-01-29T19:47:43.377Z,97837.56
2023-01-29T19:50:10.742Z,97844.63
2023-01-29T19:52:52.803Z,97848.69
2023-01-29T19:55:20.299Z,97848.91
2023-01-29T19:57:47.172Z,97854.72
2023-01-29T20:00:14.317Z,97857.75
2023-01-29T20:02:41.338Z,97865.59
2023-01-29T20:05:08.150Z,97868.22
2023-01-29T20:07:34.840Z,97868.84
2023-01-29T20:10:01.495Z,97872.56
2023-01-29T20:12:28.259Z,97878.72
2023-01-29T20:14:54.962Z,97874.31
2023-01-29T20:17:21.591Z,97878.31
2023-01-29T20:19:48.246Z,97880.97
2023-01-29T20:22:14.887Z,97876.72
2023-01-29T20:24:41.603Z,97881.31
2023-01-29T20:27:11.078Z,97872.84
2023-01-29T20:29:38.348Z,97882.13
2023-01-29T20:32:05.759Z,97883.34
2023-01-29T20:34:32.438Z,97884.50
2023-01-29T20:36:59.118Z,97890.03
2023-01-29T20:39:25.839Z,97891.00
2023-01-29T20:41:52.481Z,97891.50
2023-01-29T20:44:19.145Z,97893.47
2023-01-29T20:46:46.206Z,97894.31
2023-01-29T20:49:12.848Z,97893.47
2023-01-29T20:51:39.566Z,97892.84
2023-01-29T20:54:06.292Z,97890.19
2023-01-29T20:56:37.601Z,97897.25
2023-01-29T20:59:06.632Z,97890.19
2023-01-29T21:01:33.369Z,97902.69
2023-01-29T21:04:00.053Z,97901.97
2023-01-29T21:06:26.687Z,97888.97
2023-01-29T21:08:53.313Z,97895.19
2023-01-29T21:11:20.000Z,97898.97
2023-01-29T21:13:46.661Z,97895.13
2023-01-29T21:16:13.387Z,97904.34
2023-01-29T21:18:40.087Z,97906.88
2023-01-29T21:21:06.728Z,97912.16
2023-01-29T21:23:33.375Z,97912.81
2023-01-29T21:26:06.397Z,97907.06
2023-01-29T21:28:33.091Z,97910.06
2023-01-29T21:31:06.917Z,97909.91
2023-01-29T21:33:33.555Z,97907.34
2023-01-29T21:36:00.556Z,97905.84
2023-01-29T21:38:27.352Z,97907.84
2023-01-29T21:40:59.065Z,97900.19
2023-01-29T21:43:25.697Z,97905.00
2023-01-29T21:45:56.511Z,97898.97
2023-01-29T21:48:23.202Z,97889.56
2023-01-29T21:50:50.066Z,97892.47
2023-01-29T21:53:17.043Z,97897.75
2023-01-29T21:55:43.858Z,97891.34
2023-01-29T21:58:10.993Z,97894.06
2023-01-29T22:00:38.520Z,97899.59
2023-01-29T22:03:05.277Z,97895.03
2023-01-29T22:05:32.245Z,97885.03
2023-01-29T22:07:58.998Z,97882.00
2023-01-29T22:10:25.701Z,97888.06
2023-01-29T22:12:52.486Z,97894.94
2023-01-29T22:15:19.127Z,97887.22
2023-01-29T22:17:45.816Z,97894.38
2023-01-29T22:20:13.119Z,97890.78
2023-01-29T22:22:39.785Z,97895.41
2023-01-29T22:25:06.609Z,97881.38
2023-01-29T22:27:33.387Z,97881.06
2023-01-29T22:30:00.027Z,97883.25
2023-01-29T22:32:26.718Z,97877.97
2023-01-29T22:34:53.392Z,97877.03
2023-01-29T22:37:20.200Z,97880.66
2023-01-29T22:39:46.965Z,97880.56
2023-01-29T22:42:13.622Z,97879.09
2023-01-29T22:44:40.602Z,97868.94
2023-01-29T22:47:07.258Z,97863.72
2023-01-29T22:49:33.912Z,97857.38
2023-01-29T22:52:00.546Z,97860.09
2023-01-29T22:54:27.231Z,97852.41
2023-01-29T22:56:53.877Z,97847.13
2023-01-29T22:59:20.520Z,97843.66
2023-01-29T23:01:47.215Z,97840.69
2023-01-29T23:04:13.875Z,97831.66
2023-01-29T23:06:40.538Z,97823.94
2023-01-29T23:09:07.309Z,97823.56
2023-01-29T23:11:33.940Z,97815.28
2023-01-29T23:14:00.611Z,97822.56
2023-01-29T23:16:28.180Z,97818.75
2023-01-29T23:18:55.096Z,97810.25
2023-01-29T23:21:22.398Z,97819.03
2023-01-29T23:23:49.199Z,97815.38
2023-01-29T23:26:15.885Z,97808.19
2023-01-29T23:28:42.913Z,97815.72
2023-01-29T23:31:09.615Z,97812.97
2023-01-29T23:33:36.304Z,97816.22
2023-01-29T23:36:02.950Z,97811.97
2023-01-29T23:38:29.577Z,97800.75
2023-01-29T23:40:56.227Z,97808.50
2023-01-29T23:43:22.873Z,97808.09
2023-01-29T23:45:49.509Z,97801.81
2023-01-29T23:48:16.151Z,97795.88
2023-01-29T23:50:42.817Z,97800.50
2023-01-29T23:53:09.455Z,97794.66
2023-01-29T23:55:36.386Z,97782.34
2023-01-29T23:58:03.328Z,97789.59
